Time;durP1;ratioP1;P1;durP2;ratioP2;P2;SDS_P1;SDS_P2;PMS_P1;PMS_P2;Temp;Humidity;BMP_temperature;BMP_pressure;BME280_temperature;BME280_humidity;BME280_pressure;Samples;Min_cycle;Max_cycle;Signal;HPM_P1;HPM_P2
2021/08/11 00:01:53;;;;;;;;;;;16.90;99.90;;;;;;5031854;28;19929;-73
2021/08/11 00:04:20;;;;;;;;;;;16.90;99.90;;;;;;5032179;28;20024;-74
2021/08/11 00:06:51;;;;;;;;;;;17.00;99.90;;;;;;5015099;28;20376;-73
2021/08/11 00:09:23;;;;;;;;;;;17.00;99.90;;;;;;5030802;28;20411;-73
2021/08/11 00:11:49;;;;;;;;;;;17.00;99.90;;;;;;5030303;28;19925;-73
2021/08/11 00:14:21;;;;;;;;;;;17.00;99.90;;;;;;5030585;28;20287;-73
2021/08/11 00:16:53;;;;;;;;;;;16.90;99.90;;;;;;5030572;28;19936;-73
2021/08/11 00:19:24;;;;;;;;;;;16.90;99.90;;;;;;5030394;28;19925;-74
2021/08/11 00:21:51;;;;;;;;;;;16.90;99.90;;;;;;5030274;28;19931;-73
2021/08/11 00:24:23;;;;;;;;;;;16.80;99.90;;;;;;5030624;28;19936;-74
2021/08/11 00:26:55;;;;;;;;;;;16.80;99.90;;;;;;5030498;28;19925;-73
2021/08/11 00:29:26;;;;;;;;;;;16.80;99.90;;;;;;5033776;28;19932;-73
2021/08/11 00:31:53;;;;;;;;;;;16.80;99.90;;;;;;5050652;28;19975;-74
2021/08/11 00:34:27;;;;;;;;;;;16.70;99.90;;;;;;5034465;28;20396;-73
2021/08/11 00:36:59;;;;;;;;;;;16.70;99.90;;;;;;5034761;28;19925;-73
2021/08/11 00:39:30;;;;;;;;;;;16.70;99.90;;;;;;5034407;28;19925;-73
2021/08/11 00:42:03;;;;;;;;;;;16.60;99.90;;;;;;5023962;28;19929;-73
2021/08/11 00:44:30;;;;;;;;;;;16.50;99.90;;;;;;5034432;28;20450;-73
2021/08/11 00:47:03;;;;;;;;;;;16.50;99.90;;;;;;5050959;28;19925;-74
2021/08/11 00:49:40;;;;;;;;;;;16.50;99.90;;;;;;5051238;28;19975;-73
2021/08/11 00:52:13;;;;;;;;;;;16.40;99.90;;;;;;5018402;28;19929;-74
2021/08/11 00:54:48;;;;;;;;;;;16.40;99.90;;;;;;5050474;28;19926;-74
2021/08/11 00:57:22;;;;;;;;;;;16.40;99.90;;;;;;5033891;28;19932;-74
2021/08/11 00:59:56;;;;;;;;;;;16.50;99.90;;;;;;5050200;28;19933;-73
2021/08/11 01:02:23;;;;;;;;;;;16.50;99.90;;;;;;5033160;28;20039;-74
2021/08/11 01:04:58;;;;;;;;;;;16.40;99.90;;;;;;5049890;28;20023;-74
2021/08/11 01:07:28;;;;;;;;;;;16.50;99.90;;;;;;5049711;28;19929;-74
2021/08/11 01:09:55;;;;;;;;;;;16.50;99.90;;;;;;5033240;28;19979;-73
2021/08/11 01:12:28;;;;;;;;;;;16.50;99.90;;;;;;5048810;28;19949;-74
2021/08/11 01:14:55;;;;;;;;;;;16.60;99.90;;;;;;5050539;28;19925;-74
2021/08/11 01:17:23;;;;;;;;;;;16.50;99.90;;;;;;5050268;28;19932;-74
2021/08/11 01:19:56;;;;;;;;;;;16.60;99.90;;;;;;5033848;28;20307;-74
2021/08/11 01:22:28;;;;;;;;;;;16.50;99.90;;;;;;5033385;28;20130;-74
2021/08/11 01:25:02;;;;;;;;;;;16.50;99.90;;;;;;5032962;28;19925;-74
2021/08/11 01:27:43;;;;;;;;;;;16.50;99.90;;;;;;5048588;28;19932;-74
2021/08/11 01:30:19;;;;;;;;;;;16.40;99.90;;;;;;5049223;28;19929;-74
2021/08/11 01:33:10;;;;;;;;;;;16.40;99.90;;;;;;5032667;28;19964;-74
2021/08/11 01:35:42;;;;;;;;;;;16.40;99.90;;;;;;5049613;28;19952;-74
2021/08/11 01:38:16;;;;;;;;;;;16.30;99.90;;;;;;5033523;28;19931;-74
2021/08/11 01:40:55;;;;;;;;;;;16.30;99.90;;;;;;5033124;28;19936;-74
2021/08/11 01:43:29;;;;;;;;;;;16.30;99.90;;;;;;5049164;28;20331;-74
2021/08/11 01:45:57;;;;;;;;;;;16.30;99.90;;;;;;5033056;28;19925;-73
2021/08/11 01:48:26;;;;;;;;;;;16.40;99.90;;;;;;5049842;28;20027;-74
2021/08/11 01:50:58;;;;;;;;;;;16.30;99.90;;;;;;5032739;28;19975;-74
2021/08/11 01:53:27;;;;;;;;;;;16.20;99.90;;;;;;5049645;28;20020;-74
2021/08/11 01:55:56;;;;;;;;;;;16.20;99.90;;;;;;5032731;28;19987;-74
2021/08/11 01:58:26;;;;;;;;;;;16.20;99.90;;;;;;5032943;28;20366;-74
2021/08/11 02:01:04;;;;;;;;;;;16.20;99.90;;;;;;5048804;28;19964;-74
2021/08/11 02:03:31;;;;;;;;;;;16.30;99.90;;;;;;5032834;28;19925;-74
2021/08/11 02:05:59;;;;;;;;;;;16.30;99.90;;;;;;5049338;28;20020;-74
2021/08/11 02:08:26;;;;;;;;;;;16.30;99.90;;;;;;5032697;28;19925;-74
2021/08/11 02:10:55;;;;;;;;;;;16.30;99.90;;;;;;5032492;28;19937;-74
2021/08/11 02:13:24;;;;;;;;;;;16.30;99.90;;;;;;5048956;28;20338;-74
2021/08/11 02:15:55;;;;;;;;;;;16.30;99.90;;;;;;5032661;28;20375;-74
2021/08/11 02:18:24;;;;;;;;;;;16.30;99.90;;;;;;5032839;28;19925;-74
2021/08/11 02:20:59;;;;;;;;;;;16.20;99.90;;;;;;5032525;28;19925;-73
2021/08/11 02:23:31;;;;;;;;;;;16.10;99.90;;;;;;5032460;28;19932;-74
2021/08/11 02:26:10;;;;;;;;;;;16.10;99.90;;;;;;5032188;28;19925;-74
2021/08/11 02:28:49;;;;;;;;;;;16.00;99.90;;;;;;5032093;28;20376;-74
2021/08/11 02:31:38;;;;;;;;;;;16.00;99.90;;;;;;5048685;28;20284;-74
2021/08/11 02:34:26;;;;;;;;;;;16.00;99.90;;;;;;5048665;28;20453;-74
2021/08/11 02:37:02;;;;;;;;;;;15.90;99.90;;;;;;5048526;28;19931;-74
2021/08/11 02:39:54;;;;;;;;;;;15.90;99.90;;;;;;5032114;28;19948;-73
2021/08/11 02:42:33;;;;;;;;;;;15.90;99.90;;;;;;5029847;28;19956;-73
2021/08/11 02:45:05;;;;;;;;;;;15.90;99.90;;;;;;5048475;28;20049;-74
2021/08/11 02:47:34;;;;;;;;;;;15.90;99.90;;;;;;5033168;28;20364;-74
2021/08/11 02:50:08;;;;;;;;;;;15.90;99.90;;;;;;5048143;28;19925;-74
2021/08/11 02:52:44;;;;;;;;;;;15.90;99.90;;;;;;5047908;28;19936;-74
2021/08/11 02:55:16;;;;;;;;;;;16.00;99.90;;;;;;5048221;28;20399;-74
2021/08/11 02:57:50;;;;;;;;;;;16.00;99.90;;;;;;5032969;28;19948;-73
2021/08/11 03:00:22;;;;;;;;;;;15.90;99.90;;;;;;5048196;28;20418;-74
2021/08/11 03:02:53;;;;;;;;;;;15.90;99.90;;;;;;5047252;28;19929;-73
2021/08/11 03:05:25;;;;;;;;;;;15.90;99.90;;;;;;5048069;28;20459;-73
2021/08/11 03:07:58;;;;;;;;;;;15.90;99.90;;;;;;5048121;28;19979;-74
2021/08/11 03:10:24;;;;;;;;;;;15.80;99.90;;;;;;5048142;28;19929;-74
2021/08/11 03:12:52;;;;;;;;;;;15.80;99.90;;;;;;5031154;28;20459;-74
2021/08/11 03:15:19;;;;;;;;;;;15.80;99.90;;;;;;5031309;28;19925;-74
2021/08/11 03:17:47;;;;;;;;;;;15.80;99.90;;;;;;5031556;28;19925;-74
2021/08/11 03:20:19;;;;;;;;;;;15.80;99.90;;;;;;5031563;28;20380;-74
2021/08/11 03:22:46;;;;;;;;;;;15.80;99.90;;;;;;5047407;28;20407;-74
2021/08/11 03:25:13;;;;;;;;;;;15.80;99.90;;;;;;5031070;28;19963;-74
2021/08/11 03:27:40;;;;;;;;;;;15.80;99.90;;;;;;5030993;28;19925;-74
2021/08/11 03:30:15;;;;;;;;;;;15.80;99.90;;;;;;5031315;28;19932;-74
2021/08/11 03:32:42;;;;;;;;;;;15.80;99.90;;;;;;5047626;28;19963;-74
2021/08/11 03:35:14;;;;;;;;;;;15.90;99.90;;;;;;5030584;28;20395;-74
2021/08/11 03:37:41;;;;;;;;;;;15.90;99.90;;;;;;5030873;28;19929;-74
2021/08/11 03:40:15;;;;;;;;;;;15.90;99.90;;;;;;5030523;28;19960;-74
2021/08/11 03:42:44;;;;;;;;;;;15.90;99.90;;;;;;5046985;28;20574;-74
2021/08/11 03:45:11;;;;;;;;;;;15.90;99.90;;;;;;5047412;28;19925;-73
2021/08/11 03:47:43;;;;;;;;;;;16.00;99.90;;;;;;5047103;28;19940;-74
2021/08/11 03:50:16;;;;;;;;;;;16.00;99.90;;;;;;5030264;28;20354;-74
2021/08/11 03:52:45;;;;;;;;;;;16.00;99.90;;;;;;5046361;28;20020;-74
2021/08/11 03:55:27;;;;;;;;;;;16.00;99.90;;;;;;5046754;28;19925;-74
2021/08/11 03:58:00;;;;;;;;;;;15.90;99.90;;;;;;5046528;28;19932;-73
2021/08/11 04:00:28;;;;;;;;;;;15.90;99.90;;;;;;5013720;28;19929;-72
2021/08/11 04:03:00;;;;;;;;;;;15.80;99.90;;;;;;5045592;28;20372;-73
2021/08/11 04:05:29;;;;;;;;;;;15.90;99.90;;;;;;5045961;28;19932;-73
2021/08/11 04:08:00;;;;;;;;;;;16.00;99.90;;;;;;5030584;28;19932;-74
2021/08/11 04:10:32;;;;;;;;;;;16.00;99.90;;;;;;5046501;28;19951;-74
2021/08/11 04:13:03;;;;;;;;;;;15.90;99.90;;;;;;5030188;28;19932;-74
2021/08/11 04:15:35;;;;;;;;;;;15.90;99.90;;;;;;5046310;28;20388;-73
2021/08/11 04:18:07;;;;;;;;;;;15.90;99.90;;;;;;5030626;28;19933;-73
2021/08/11 04:20:39;;;;;;;;;;;15.80;99.90;;;;;;5031733;28;19986;-73
2021/08/11 04:23:06;;;;;;;;;;;15.80;99.90;;;;;;5047023;28;20307;-73
2021/08/11 04:25:40;;;;;;;;;;;15.80;99.90;;;;;;5031491;28;19933;-73
2021/08/11 04:28:07;;;;;;;;;;;15.80;99.90;;;;;;5030526;28;19929;-73
2021/08/11 04:30:40;;;;;;;;;;;15.80;99.90;;;;;;5031426;28;20438;-73
2021/08/11 04:33:13;;;;;;;;;;;15.70;99.90;;;;;;5031384;28;19925;-73
2021/08/11 04:35:45;;;;;;;;;;;15.60;99.90;;;;;;5046499;28;19929;-73
2021/08/11 04:38:17;;;;;;;;;;;15.60;99.90;;;;;;5031027;28;19991;-73
2021/08/11 04:40:45;;;;;;;;;;;15.60;99.90;;;;;;5030588;28;19936;-73
2021/08/11 04:43:16;;;;;;;;;;;15.50;99.90;;;;;;5045950;28;19932;-73
2021/08/11 04:45:43;;;;;;;;;;;15.50;99.90;;;;;;5047244;28;20400;-73
2021/08/11 04:48:15;;;;;;;;;;;15.50;99.90;;;;;;5032004;28;19948;-72
2021/08/11 04:50:46;;;;;;;;;;;15.50;99.90;;;;;;5046431;28;20307;-73
2021/08/11 04:53:18;;;;;;;;;;;15.60;99.90;;;;;;5031464;28;19925;-73
2021/08/11 04:55:50;;;;;;;;;;;15.60;99.90;;;;;;5046456;28;19932;-73
2021/08/11 04:58:17;;;;;;;;;;;15.60;99.90;;;;;;5031844;28;20383;-73
2021/08/11 05:00:48;;;;;;;;;;;15.60;99.90;;;;;;5046586;28;19931;-73
2021/08/11 05:03:15;;;;;;;;;;;15.60;99.90;;;;;;5046752;28;20410;-73
2021/08/11 05:05:42;;;;;;;;;;;15.70;99.90;;;;;;5031629;28;19933;-72
2021/08/11 05:08:13;;;;;;;;;;;15.70;99.90;;;;;;5030610;28;19929;-73
2021/08/11 05:10:45;;;;;;;;;;;15.70;99.90;;;;;;5031985;28;20296;-73
2021/08/11 05:13:16;;;;;;;;;;;15.70;99.90;;;;;;5030477;28;20335;-73
2021/08/11 05:15:43;;;;;;;;;;;15.80;99.90;;;;;;5050205;28;19962;-73
2021/08/11 05:18:11;;;;;;;;;;;15.80;99.90;;;;;;5050944;28;19925;-73
2021/08/11 05:20:43;;;;;;;;;;;15.70;99.90;;;;;;5050393;28;19980;-73
2021/08/11 05:23:14;;;;;;;;;;;15.80;99.90;;;;;;5049644;28;19925;-73
2021/08/11 05:25:41;;;;;;;;;;;15.80;99.90;;;;;;5035261;28;19932;-73
2021/08/11 05:28:13;;;;;;;;;;;15.80;99.90;;;;;;5034444;28;20292;-73
2021/08/11 05:30:40;;;;;;;;;;;15.80;99.90;;;;;;5050379;28;19925;-73
2021/08/11 05:33:12;;;;;;;;;;;15.90;99.90;;;;;;5049286;28;19996;-73
2021/08/11 05:35:44;;;;;;;;;;;15.90;99.90;;;;;;5033839;28;19929;-73
2021/08/11 05:38:15;;;;;;;;;;;15.90;99.90;;;;;;5034068;28;19925;-73
2021/08/11 05:40:42;;;;;;;;;;;16.00;99.90;;;;;;5035738;28;20307;-73
2021/08/11 05:43:09;;;;;;;;;;;16.00;99.90;;;;;;5057901;28;19932;-73
2021/08/11 05:45:35;;;;;;;;;;;16.00;99.90;;;;;;5053078;28;19932;-73
2021/08/11 05:48:02;;;;;;;;;;;16.10;99.90;;;;;;5066875;28;19925;-73
2021/08/11 05:50:34;;;;;;;;;;;16.10;99.90;;;;;;5057347;28;20334;-73
2021/08/11 05:53:00;;;;;;;;;;;16.10;99.90;;;;;;5069119;28;19933;-73
2021/08/11 05:55:27;;;;;;;;;;;16.20;99.90;;;;;;5059990;28;19931;-73
2021/08/11 05:57:53;;;;;;;;;;;16.20;99.90;;;;;;5062536;28;20093;-73
2021/08/11 06:00:20;;;;;;;;;;;16.20;99.90;;;;;;5053046;28;19931;-73
2021/08/11 06:02:52;;;;;;;;;;;16.20;99.90;;;;;;5069096;28;19932;-73
2021/08/11 06:05:35;;;;;;;;;;;16.20;99.90;;;;;;5054333;28;19932;-73
2021/08/11 06:08:02;;;;;;;;;;;16.20;99.90;;;;;;5037527;28;19924;-74
2021/08/11 06:10:29;;;;;;;;;;;16.20;99.90;;;;;;5052239;28;20010;-73
2021/08/11 06:12:55;;;;;;;;;;;16.20;99.90;;;;;;5055942;28;19931;-73
2021/08/11 06:15:27;;;;;;;;;;;16.30;99.90;;;;;;5066740;28;20302;-73
2021/08/11 06:17:59;;;;;;;;;;;16.30;99.90;;;;;;5046454;28;19924;-73
2021/08/11 06:20:30;;;;;;;;;;;16.30;99.90;;;;;;5041853;28;19925;-73
2021/08/11 06:22:57;;;;;;;;;;;16.40;99.90;;;;;;5051459;28;19924;-73
2021/08/11 06:25:29;;;;;;;;;;;16.40;99.90;;;;;;5056509;28;20290;-73
2021/08/11 06:27:55;;;;;;;;;;;16.50;99.90;;;;;;5042671;28;19925;-73
2021/08/11 06:30:28;;;;;;;;;;;16.60;99.90;;;;;;5017896;28;19925;-73
2021/08/11 06:33:00;;;;;;;;;;;16.60;99.90;;;;;;5067989;28;19931;-73
2021/08/11 06:35:27;;;;;;;;;;;16.70;99.90;;;;;;5057178;28;20023;-73
2021/08/11 06:37:53;;;;;;;;;;;16.80;99.90;;;;;;5060228;28;19958;-72
2021/08/11 06:40:25;;;;;;;;;;;16.80;99.90;;;;;;5045246;28;19929;-73
2021/08/11 06:42:57;;;;;;;;;;;16.90;99.90;;;;;;5045837;28;20406;-73
2021/08/11 06:45:24;;;;;;;;;;;17.00;99.90;;;;;;5040197;28;19933;-73
2021/08/11 06:47:57;;;;;;;;;;;17.10;99.90;;;;;;5034087;28;19924;-74
2021/08/11 06:50:28;;;;;;;;;;;17.20;99.90;;;;;;5055886;28;19929;-74
2021/08/11 06:53:00;;;;;;;;;;;17.20;99.90;;;;;;5051527;28;19959;-73
2021/08/11 06:55:27;;;;;;;;;;;17.30;99.90;;;;;;5032470;28;20020;-72
2021/08/11 06:57:53;;;;;;;;;;;17.40;99.90;;;;;;5041574;28;19940;-73
2021/08/11 07:00:20;;;;;;;;;;;17.40;99.90;;;;;;5033483;28;19925;-74
2021/08/11 07:02:52;;;;;;;;;;;17.50;99.90;;;;;;5030477;28;19924;-73
2021/08/11 07:05:24;;;;;;;;;;;17.60;99.90;;;;;;5044307;28;20433;-71
2021/08/11 07:07:51;;;;;;;;;;;17.70;99.90;;;;;;5023486;28;19933;-73
2021/08/11 07:10:22;;;;;;;;;;;17.80;99.90;;;;;;5031176;28;19925;-73
2021/08/11 07:12:54;;;;;;;;;;;17.90;99.90;;;;;;5014484;28;19941;-73
2021/08/11 07:15:21;;;;;;;;;;;18.00;99.90;;;;;;5052622;28;19928;-72
2021/08/11 07:17:55;;;;;;;;;;;18.10;99.90;;;;;;5055441;28;19924;-73
2021/08/11 07:20:22;;;;;;;;;;;18.20;99.90;;;;;;5054101;28;19924;-72
2021/08/11 07:22:49;;;;;;;;;;;18.30;99.90;;;;;;5070294;28;20007;-73
2021/08/11 07:25:17;;;;;;;;;;;18.40;99.90;;;;;;5070924;28;19924;-72
2021/08/11 07:27:43;;;;;;;;;;;18.50;99.90;;;;;;5054448;28;19925;-72
2021/08/11 07:30:11;;;;;;;;;;;18.60;99.90;;;;;;5070322;28;19948;-72
2021/08/11 07:32:44;;;;;;;;;;;18.80;99.90;;;;;;5070191;28;20436;-73
2021/08/11 07:35:16;;;;;;;;;;;18.90;99.90;;;;;;5054633;28;19954;-72
2021/08/11 07:37:44;;;;;;;;;;;19.00;99.90;;;;;;5053680;28;20050;-72
2021/08/11 07:40:12;;;;;;;;;;;19.20;99.90;;;;;;5061460;28;19968;-73
2021/08/11 07:42:40;;;;;;;;;;;19.30;99.90;;;;;;5031132;28;19929;-71
2021/08/11 07:45:13;;;;;;;;;;;19.50;99.90;;;;;;5042544;28;19931;-73
2021/08/11 07:47:51;;;;;;;;;;;19.60;99.90;;;;;;5044909;28;19929;-72
2021/08/11 07:50:19;;;;;;;;;;;19.70;99.90;;;;;;5048749;28;19932;-72
2021/08/11 07:52:50;;;;;;;;;;;19.90;99.90;;;;;;5053374;28;19971;-72
2021/08/11 07:55:23;;;;;;;;;;;20.00;99.90;;;;;;5057735;28;19979;-71
2021/08/11 07:57:50;;;;;;;;;;;20.20;99.90;;;;;;5054824;28;20466;-72
2021/08/11 08:00:22;;;;;;;;;;;20.30;99.90;;;;;;5038966;28;19932;-73
2021/08/11 08:02:54;;;;;;;;;;;20.40;99.90;;;;;;5047812;28;20140;-73
2021/08/11 08:05:26;;;;;;;;;;;20.60;99.90;;;;;;5069207;28;20327;-72
2021/08/11 08:07:59;;;;;;;;;;;20.70;99.90;;;;;;5032606;28;20384;-72
2021/08/11 08:10:31;;;;;;;;;;;20.90;99.90;;;;;;5024138;28;19925;-72
2021/08/11 08:13:03;;;;;;;;;;;21.00;99.90;;;;;;5042860;28;19947;-72
2021/08/11 08:15:30;;;;;;;;;;;21.10;99.90;;;;;;5063042;28;19932;-71
2021/08/11 08:17:57;;;;;;;;;;;21.20;99.90;;;;;;5043993;28;19967;-72
2021/08/11 08:20:23;;;;;;;;;;;21.20;99.90;;;;;;5047851;28;19925;-73
2021/08/11 08:22:56;;;;;;;;;;;21.30;99.90;;;;;;5042020;28;19925;-72
2021/08/11 08:25:23;;;;;;;;;;;21.40;99.90;;;;;;5046578;28;19933;-71
2021/08/11 08:27:50;;;;;;;;;;;21.50;99.90;;;;;;5033588;28;19925;-72
2021/08/11 08:30:17;;;;;;;;;;;21.50;99.90;;;;;;5032865;28;19956;-72
2021/08/11 08:32:49;;;;;;;;;;;21.60;99.90;;;;;;5051327;28;20351;-72
2021/08/11 08:35:21;;;;;;;;;;;21.60;99.90;;;;;;5069221;28;19924;-72
2021/08/11 08:37:48;;;;;;;;;;;21.70;99.90;;;;;;5040757;28;19925;-72
2021/08/11 08:40:15;;;;;;;;;;;21.80;99.90;;;;;;5039273;28;19928;-72
2021/08/11 08:42:46;;;;;;;;;;;21.90;99.90;;;;;;5053191;28;19925;-73
2021/08/11 08:45:18;;;;;;;;;;;22.10;99.90;;;;;;5054707;28;20383;-73
2021/08/11 08:47:45;;;;;;;;;;;22.20;99.90;;;;;;5036348;28;19929;-73
2021/08/11 08:50:20;;;;;;;;;;;22.30;99.90;;;;;;5060346;28;19924;-73
2021/08/11 08:52:52;;;;;;;;;;;22.40;99.90;;;;;;5050904;28;20065;-73
2021/08/11 08:55:25;;;;;;;;;;;22.50;99.90;;;;;;5057476;28;19938;-73
2021/08/11 08:57:52;;;;;;;;;;;22.60;99.90;;;;;;5058438;28;19961;-73
2021/08/11 09:00:25;;;;;;;;;;;22.70;99.90;;;;;;5065574;28;19979;-73
2021/08/11 09:02:57;;;;;;;;;;;22.80;99.90;;;;;;5072501;28;19970;-76
2021/08/11 09:05:26;;;;;;;;;;;22.80;99.90;;;;;;5070405;28;20283;-73
2021/08/11 09:07:53;;;;;;;;;;;22.90;99.90;;;;;;5049463;28;19929;-74
2021/08/11 09:10:22;;;;;;;;;;;22.90;99.90;;;;;;5040569;28;19972;-73
2021/08/11 09:12:50;;;;;;;;;;;23.00;99.90;;;;;;5050564;28;19925;-74
2021/08/11 09:15:27;;;;;;;;;;;23.10;99.90;;;;;;5048794;28;20370;-74
2021/08/11 09:18:09;;;;;;;;;;;23.20;99.90;;;;;;5052152;28;20394;-74
2021/08/11 09:20:37;;;;;;;;;;;23.20;99.90;;;;;;5047396;28;19938;-73
2021/08/11 09:23:09;;;;;;;;;;;23.30;99.90;;;;;;5054397;28;19925;-75
2021/08/11 09:25:58;;;;;;;;;;;23.40;99.90;;;;;;5032738;28;20354;-75
2021/08/11 09:28:31;;;;;;;;;;;23.50;99.90;;;;;;5053289;28;19936;-73
2021/08/11 09:30:58;;;;;;;;;;;23.60;99.90;;;;;;5051322;28;19925;-72
2021/08/11 09:33:32;;;;;;;;;;;23.60;99.90;;;;;;5045415;28;19925;-73
2021/08/11 09:36:09;;;;;;;;;;;23.60;99.90;;;;;;5048161;28;19924;-73
2021/08/11 09:39:00;;;;;;;;;;;23.60;99.90;;;;;;5037428;28;19971;-73
2021/08/11 09:41:27;;;;;;;;;;;23.70;99.90;;;;;;5052353;28;20430;-73
2021/08/11 09:44:03;;;;;;;;;;;23.70;99.90;;;;;;5052858;28;19924;-73
2021/08/11 09:46:30;;;;;;;;;;;23.80;99.90;;;;;;5069262;28;19924;-73
2021/08/11 09:49:11;;;;;;;;;;;23.90;99.90;;;;;;5053302;28;19924;-73
2021/08/11 09:51:52;;;;;;;;;;;24.10;99.90;;;;;;5052051;28;19924;-72
2021/08/11 09:54:18;;;;;;;;;;;24.20;99.90;;;;;;5032682;28;19960;-73
2021/08/11 09:56:50;;;;;;;;;;;24.30;99.90;;;;;;5044440;28;20406;-72
2021/08/11 09:59:22;;;;;;;;;;;24.50;99.90;;;;;;5039078;28;19933;-72
2021/08/11 10:02:12;;;;;;;;;;;24.60;99.90;;;;;;5064895;28;19924;-72
2021/08/11 10:04:51;;;;;;;;;;;24.70;99.90;;;;;;5058103;28;19924;-72
2021/08/11 10:07:23;;;;;;;;;;;24.80;99.90;;;;;;5072045;28;19960;-72
2021/08/11 10:10:06;;;;;;;;;;;24.80;99.90;;;;;;5073286;28;19924;-72
2021/08/11 10:12:37;;;;;;;;;;;24.80;99.90;;;;;;5055721;28;19931;-73
2021/08/11 10:15:09;;;;;;;;;;;24.80;99.90;;;;;;5072207;28;19931;-72
2021/08/11 10:17:36;;;;;;;;;;;24.90;99.90;;;;;;5072041;28;19925;-72
2021/08/11 10:20:04;;;;;;;;;;;24.90;99.90;;;;;;5055583;28;19970;-72
2021/08/11 10:22:39;;;;;;;;;;;25.10;99.90;;;;;;5071979;28;19967;-72
2021/08/11 10:25:11;;;;;;;;;;;25.20;99.90;;;;;;5072557;28;19929;-72
2021/08/11 10:27:44;;;;;;;;;;;25.20;99.90;;;;;;5072222;28;20023;-72
2021/08/11 10:30:16;;;;;;;;;;;25.20;99.90;;;;;;5070909;28;19960;-71
2021/08/11 10:32:48;;;;;;;;;;;25.10;99.90;;;;;;5049428;28;20023;-72
2021/08/11 10:35:19;;;;;;;;;;;25.20;99.90;;;;;;5052200;28;19924;-72
2021/08/11 10:37:52;;;;;;;;;;;25.20;99.90;;;;;;5050732;28;19928;-72
2021/08/11 10:40:23;;;;;;;;;;;25.30;99.90;;;;;;5042232;28;20388;-72
2021/08/11 10:42:56;;;;;;;;;;;25.50;99.90;;;;;;5052071;28;19925;-71
2021/08/11 10:45:28;;;;;;;;;;;25.50;99.90;;;;;;5055457;28;19924;-72
2021/08/11 10:48:00;;;;;;;;;;;25.60;99.90;;;;;;5031468;28;20287;-73
2021/08/11 10:50:41;;;;;;;;;;;25.60;99.90;;;;;;5015807;28;19925;-72
2021/08/11 10:53:08;;;;;;;;;;;25.60;99.90;;;;;;5031342;28;19944;-73
2021/08/11 10:55:49;;;;;;;;;;;25.70;99.90;;;;;;5048465;28;20383;-72
2021/08/11 10:58:35;;;;;;;;;;;25.80;99.90;;;;;;5071297;28;20023;-72
2021/08/11 11:01:25;;;;;;;;;;;25.70;99.90;;;;;;5062974;28;19931;-72
2021/08/11 11:03:57;;;;;;;;;;;25.70;99.90;;;;;;5055472;28;19971;-72
2021/08/11 11:06:47;;;;;;;;;;;25.80;99.90;;;;;;5070723;28;19931;-71
2021/08/11 11:09:21;;;;;;;;;;;25.80;99.90;;;;;;5065501;28;19933;-71
2021/08/11 11:11:52;;;;;;;;;;;25.90;99.90;;;;;;5062668;28;20298;-72
2021/08/11 11:14:44;;;;;;;;;;;26.00;99.90;;;;;;5053454;28;20122;-72
2021/08/11 11:17:16;;;;;;;;;;;26.00;99.90;;;;;;5052594;28;19928;-72
2021/08/11 11:20:02;;;;;;;;;;;26.20;99.90;;;;;;5066233;28;20023;-73
2021/08/11 11:22:49;;;;;;;;;;;26.20;99.90;;;;;;5063596;28;20405;-72
2021/08/11 11:25:17;;;;;;;;;;;26.30;99.90;;;;;;5052878;28;19928;-72
2021/08/11 11:28:07;;;;;;;;;;;26.30;99.90;;;;;;5056442;28;20156;-72
2021/08/11 11:30:39;;;;;;;;;;;26.30;99.90;;;;;;5058187;28;19924;-72
2021/08/11 11:33:16;;;;;;;;;;;26.20;99.90;;;;;;5050402;28;19931;-72
2021/08/11 11:36:08;;;;;;;;;;;26.30;99.90;;;;;;5051572;28;20295;-72
2021/08/11 11:38:35;;;;;;;;;;;26.30;99.90;;;;;;5051771;28;19925;-72
2021/08/11 11:41:02;;;;;;;;;;;26.50;99.90;;;;;;5050395;28;19935;-72
2021/08/11 11:43:29;;;;;;;;;;;26.70;99.90;;;;;;5086887;28;19938;-72
2021/08/11 11:45:57;;;;;;;;;;;26.90;99.90;;;;;;5045606;28;19983;-72
2021/08/11 11:48:29;;;;;;;;;;;27.10;99.90;;;;;;5072014;28;20305;-72
2021/08/11 11:51:03;;;;;;;;;;;27.10;99.90;;;;;;5062068;28;19935;-72
2021/08/11 11:53:37;;;;;;;;;;;26.80;99.50;;;;;;5064148;28;19931;-71
2021/08/11 11:56:08;;;;;;;;;;;26.60;99.90;;;;;;5054335;28;20035;-72
2021/08/11 11:58:40;;;;;;;;;;;26.60;99.70;;;;;;5064962;28;20032;-73
2021/08/11 12:01:12;;;;;;;;;;;26.60;99.90;;;;;;5060535;28;19924;-72
2021/08/11 12:03:46;;;;;;;;;;;26.70;99.90;;;;;;5057005;28;19925;-73
2021/08/11 12:06:35;;;;;;;;;;;26.60;99.90;;;;;;5069805;28;20018;-71
2021/08/11 12:09:07;;;;;;;;;;;26.40;99.90;;;;;;5061370;28;20399;-71
2021/08/11 12:11:40;;;;;;;;;;;26.40;99.90;;;;;;5054098;28;20301;-72
2021/08/11 12:14:21;;;;;;;;;;;26.40;99.90;;;;;;5050754;28;19925;-73
2021/08/11 12:16:53;;;;;;;;;;;26.60;99.90;;;;;;5065630;28;19931;-74
2021/08/11 12:19:25;;;;;;;;;;;26.80;99.90;;;;;;5071253;28;20386;-72
2021/08/11 12:21:56;;;;;;;;;;;27.00;99.90;;;;;;5063334;28;19931;-70
2021/08/11 12:24:23;;;;;;;;;;;27.10;98.90;;;;;;5065739;28;20504;-72
2021/08/11 12:26:55;;;;;;;;;;;27.20;98.50;;;;;;5059562;28;19931;-72
2021/08/11 12:29:27;;;;;;;;;;;27.00;97.40;;;;;;5072283;28;19931;-71
2021/08/11 12:31:58;;;;;;;;;;;26.80;98.60;;;;;;5055057;28;19929;-72
2021/08/11 12:34:30;;;;;;;;;;;26.70;99.60;;;;;;5063856;28;20314;-72
2021/08/11 12:36:57;;;;;;;;;;;26.70;99.90;;;;;;5086224;28;19924;-72
2021/08/11 12:39:35;;;;;;;;;;;26.80;98.30;;;;;;5074509;28;19924;-71
2021/08/11 12:42:06;;;;;;;;;;;26.90;98.70;;;;;;5074768;28;19934;-71
2021/08/11 12:44:38;;;;;;;;;;;27.00;97.80;;;;;;5063787;28;20280;-73
2021/08/11 12:47:12;;;;;;;;;;;27.30;98.40;;;;;;5070161;28;19930;-72
2021/08/11 12:49:49;;;;;;;;;;;27.30;96.90;;;;;;5034957;28;19925;-72
2021/08/11 12:52:22;;;;;;;;;;;27.20;97.00;;;;;;5052515;28;19924;-72
2021/08/11 12:54:57;;;;;;;;;;;26.90;96.60;;;;;;5060233;28;19951;-71
2021/08/11 12:57:38;;;;;;;;;;;26.90;97.40;;;;;;5057097;28;20419;-74
2021/08/11 13:00:11;;;;;;;;;;;27.10;96.40;;;;;;5054232;28;19925;-72
2021/08/11 13:02:42;;;;;;;;;;;27.40;97.50;;;;;;5069779;28;19924;-72
2021/08/11 13:05:09;;;;;;;;;;;27.50;95.30;;;;;;5074631;28;19925;-71
2021/08/11 13:08:00;;;;;;;;;;;27.50;94.40;;;;;;5074635;28;19925;-72
2021/08/11 13:10:29;;;;;;;;;;;27.60;95.00;;;;;;5060908;28;20417;-72
2021/08/11 13:13:24;;;;;;;;;;;27.70;94.30;;;;;;5070963;28;19924;-72
2021/08/11 13:16:06;;;;;;;;;;;27.80;94.00;;;;;;5065262;28;20015;-73
2021/08/11 13:18:38;;;;;;;;;;;27.90;93.90;;;;;;5059806;28;19925;-73
2021/08/11 13:21:05;;;;;;;;;;;27.90;93.80;;;;;;5065581;28;20331;-74
2021/08/11 13:23:37;;;;;;;;;;;27.70;92.10;;;;;;5052090;28;19936;-72
2021/08/11 13:26:09;;;;;;;;;;;27.50;92.80;;;;;;5042146;28;20302;-72
2021/08/11 13:28:39;;;;;;;;;;;27.50;92.90;;;;;;5056054;28;20417;-72
2021/08/11 13:31:11;;;;;;;;;;;27.50;94.10;;;;;;5069930;28;20016;-73
2021/08/11 13:33:39;;;;;;;;;;;27.40;93.90;;;;;;5060690;28;19924;-72
2021/08/11 13:36:11;;;;;;;;;;;27.50;94.10;;;;;;5061364;28;19937;-72
2021/08/11 13:38:43;;;;;;;;;;;27.60;93.60;;;;;;5056391;28;19925;-72
2021/08/11 13:41:14;;;;;;;;;;;27.60;94.20;;;;;;5049476;28;19932;-72
2021/08/11 13:43:46;;;;;;;;;;;27.50;93.10;;;;;;5033617;28;20298;-72
2021/08/11 13:46:18;;;;;;;;;;;27.40;92.90;;;;;;5039535;28;19956;-72
2021/08/11 13:48:44;;;;;;;;;;;27.50;93.00;;;;;;5072123;28;19924;-72
2021/08/11 13:51:11;;;;;;;;;;;27.60;92.80;;;;;;5053655;28;19960;-72
2021/08/11 13:53:42;;;;;;;;;;;27.70;93.30;;;;;;5054375;28;19951;-72
2021/08/11 13:56:11;;;;;;;;;;;27.70;92.40;;;;;;5052906;28;19925;-72
2021/08/11 13:58:38;;;;;;;;;;;27.70;92.50;;;;;;5036527;28;19931;-73
2021/08/11 14:01:11;;;;;;;;;;;27.70;93.80;;;;;;5036951;28;20500;-72
2021/08/11 14:03:37;;;;;;;;;;;27.90;92.70;;;;;;5053526;28;19999;-72
2021/08/11 14:06:09;;;;;;;;;;;28.10;92.40;;;;;;5054064;28;19947;-73
2021/08/11 14:08:42;;;;;;;;;;;28.40;93.00;;;;;;5054445;28;19931;-73
2021/08/11 14:11:08;;;;;;;;;;;28.60;91.60;;;;;;5036300;28;19932;-73
2021/08/11 14:13:41;;;;;;;;;;;28.70;91.30;;;;;;5055737;28;20387;-73
2021/08/11 14:16:12;;;;;;;;;;;28.70;91.40;;;;;;5053047;28;19935;-73
2021/08/11 14:18:44;;;;;;;;;;;28.70;91.00;;;;;;5054722;28;20442;-73
2021/08/11 14:21:16;;;;;;;;;;;28.60;91.10;;;;;;5054171;28;20391;-73
2021/08/11 14:23:47;;;;;;;;;;;28.70;90.50;;;;;;5053791;28;19924;-73
2021/08/11 14:26:19;;;;;;;;;;;28.80;89.40;;;;;;5053888;28;20303;-73
2021/08/11 14:28:51;;;;;;;;;;;28.90;89.30;;;;;;5051833;28;19933;-73
2021/08/11 14:31:24;;;;;;;;;;;29.00;89.90;;;;;;5072977;28;20015;-73
2021/08/11 14:33:51;;;;;;;;;;;29.00;89.50;;;;;;5071993;28;19971;-73
2021/08/11 14:36:18;;;;;;;;;;;28.80;87.90;;;;;;5051586;28;19939;-73
2021/08/11 14:38:50;;;;;;;;;;;28.70;87.70;;;;;;5060974;28;19924;-73
2021/08/11 14:41:22;;;;;;;;;;;28.60;88.50;;;;;;5060893;28;19964;-73
2021/08/11 14:43:53;;;;;;;;;;;28.50;86.50;;;;;;5068216;28;19925;-73